This is the latest recevied weather packets stored in our database for station/object WB7AAV. If no packets are shown the sender has not sent any weather packets the latest 10 day(s).
| Time | Temp. | Humidity | Pressure | Rain* | Wind** | Luminosity | Snow |
|---|---|---|---|---|---|---|---|
| 1777650139 | 6.67° C | 63% | 1021.7 hPa | 0 mm | - | - | - |
| 1777648032 | 6.11° C | 73% | 1021.6 hPa | 0.25 mm | - | - | - |
| 1777646830 | 6.11° C | 69% | 1021.7 hPa | 0.25 mm | - | - | - |
| 1777645932 | 5.56° C | 75% | 1021.7 hPa | 0 mm | - | - | - |
| 1777645928 | 5.56° C | 72% | 1021.7 hPa | 0 mm | - | - | - |
| 1777644727 | 5° C | 74% | 1021.6 hPa | 0 mm | - | - | - |
| 1777642627 | 3.89° C | 80% | 1021.3 hPa | 0 mm | - | - | - |
| 1777642328 | 3.33° C | 82% | 1021.3 hPa | 0 mm | - | - | - |
| 1777636618 | 0° C | 91% | 1020.9 hPa | 0 mm | - | - | - |
| 1777635716 | 0° C | 91% | 1020.7 hPa | 0 mm | - | - | - |
| 1777633918 | 0.56° C | 90% | 1020.9 hPa | 0 mm | - | - | - |
| 1777630614 | 1.11° C | 88% | 1021.1 hPa | 0 mm | - | - | - |
| 1777629710 | 1.11° C | 88% | 1021 hPa | 0 mm | - | - | - |
| 1777627910 | 1.11° C | 91% | 1021 hPa | 0 mm | - | - | - |
| 1777623184 | 1.11° C | 94% | 1021.6 hPa | 0 mm | - | - | - |
| 1777621000 | 1.67° C | 94% | 1021.9 hPa | 0 mm | - | - | - |
| 1777618902 | 1.67° C | 93% | 1022.2 hPa | 0.51 mm | - | - | - |
| 1777618301 | 1.67° C | 93% | 1022.2 hPa | 0.76 mm | - | - | - |
| 1777617700 | 1.67° C | 93% | 1022.2 hPa | 1.02 mm | - | - | - |
| 1777617410 | 1.67° C | 93% | 1022.3 hPa | 1.02 mm | - | - | - |
| 1777615896 | 1.67° C | 92% | 1022.4 hPa | 0.76 mm | - | - | - |
| 1777613192 | 2.22° C | 92% | 1022.2 hPa | 0.25 mm | - | - | - |
| 1777612893 | 2.22° C | 93% | 1022.3 hPa | 0.25 mm | - | - | - |
| 1777611390 | 2.22° C | 92% | 1022.2 hPa | 0 mm | - | - | - |
| 1777611089 | 2.22° C | 92% | 1022.2 hPa | 0 mm | - | - | - |
* Rain latest hour (hover to see other rain measurements)
** Current wind speed in m/s (hover to see current wind gust speed)